Time;durP1;ratioP1;P1;durP2;ratioP2;P2;SDS_P1;SDS_P2;PMS_P1;PMS_P2;Temp;Humidity;BMP_temperature;BMP_pressure;BME280_temperature;BME280_humidity;BME280_pressure;Samples;Min_cycle;Max_cycle;Signal;HPM_P1;HPM_P2
2023/05/24 00:02:44;;;;;;;29.23;20.10;;;;;;;;;;6293732;28;20044;-60
2023/05/24 00:05:45;;;;;;;28.10;20.23;;;;;;;;;;6310221;28;20051;-59
2023/05/24 00:08:46;;;;;;;31.73;20.73;;;;;;;;;;6307908;28;20040;-60
2023/05/24 00:11:47;;;;;;;30.65;20.92;;;;;;;;;;6293917;28;20044;-58
2023/05/24 00:14:47;;;;;;;30.27;21.08;;;;;;;;;;6296470;28;20127;-60
2023/05/24 00:17:48;;;;;;;32.10;21.05;;;;;;;;;;6291575;28;20631;-58
2023/05/24 00:20:50;;;;;;;33.20;21.08;;;;;;;;;;6290987;28;20052;-60
2023/05/24 00:23:51;;;;;;;32.45;20.70;;;;;;;;;;6295780;28;20046;-60
2023/05/24 00:26:52;;;;;;;33.63;22.30;;;;;;;;;;6292528;28;20060;-58
2023/05/24 00:29:52;;;;;;;30.67;21.60;;;;;;;;;;6294685;28;20043;-60
2023/05/24 00:32:53;;;;;;;30.73;21.90;;;;;;;;;;6296510;28;20146;-54
2023/05/24 00:35:57;;;;;;;34.30;22.98;;;;;;;;;;6291222;28;20453;-59
2023/05/24 00:38:58;;;;;;;31.25;22.27;;;;;;;;;;6294604;28;20135;-62
2023/05/24 00:41:58;;;;;;;32.58;22.10;;;;;;;;;;6293116;28;20552;-56
2023/05/24 00:44:59;;;;;;;36.87;24.13;;;;;;;;;;6297911;28;20044;-59
2023/05/24 00:48:00;;;;;;;35.10;23.48;;;;;;;;;;6297291;28;20410;-59
2023/05/24 00:51:01;;;;;;;38.97;22.67;;;;;;;;;;6291967;28;20048;-53
2023/05/24 00:54:01;;;;;;;38.45;25.00;;;;;;;;;;6300628;28;20051;-60
2023/05/24 00:57:02;;;;;;;32.08;23.75;;;;;;;;;;6301724;28;20068;-61
2023/05/24 01:00:04;;;;;;;40.25;25.42;;;;;;;;;;6292993;28;20063;-62
2023/05/24 01:03:06;;;;;;;41.35;26.02;;;;;;;;;;6297191;28;20032;-61
2023/05/24 01:06:07;;;;;;;36.28;26.15;;;;;;;;;;6301390;28;20474;-61
2023/05/24 01:09:17;;;;;;;39.47;26.67;;;;;;;;;;6294118;28;20052;-61
2023/05/24 01:12:24;;;;;;;36.80;25.55;;;;;;;;;;6296553;28;20106;-61
2023/05/24 01:15:34;;;;;;;37.92;26.40;;;;;;;;;;6307101;28;20036;-62
2023/05/24 01:18:40;;;;;;;39.45;26.13;;;;;;;;;;6301138;28;20485;-61
2023/05/24 01:22:00;;;;;;;38.00;25.95;;;;;;;;;;6300000;28;20497;-63
2023/05/24 01:25:03;;;;;;;37.10;25.52;;;;;;;;;;6292619;28;20086;-61
2023/05/24 01:28:07;;;;;;;39.15;25.48;;;;;;;;;;6305641;28;20036;-60
2023/05/24 01:31:08;;;;;;;38.10;26.45;;;;;;;;;;6300255;28;20051;-61
2023/05/24 01:34:10;;;;;;;37.67;25.50;;;;;;;;;;6292775;28;20037;-61
2023/05/24 01:37:11;;;;;;;39.53;25.73;;;;;;;;;;6295087;28;20055;-61
2023/05/24 01:40:12;;;;;;;37.03;26.05;;;;;;;;;;6300862;28;20459;-61
2023/05/24 01:43:30;;;;;;;38.60;25.50;;;;;;;;;;6294789;28;20122;-62
2023/05/24 01:46:36;;;;;;;36.42;23.95;;;;;;;;;;6288866;28;20044;-62
2023/05/24 01:49:42;;;;;;;37.60;23.88;;;;;;;;;;6293141;28;20079;-60
2023/05/24 01:52:45;;;;;;;37.28;25.50;;;;;;;;;;6291291;28;20106;-60
2023/05/24 01:55:48;;;;;;;35.30;24.77;;;;;;;;;;6306185;28;20048;-62
2023/05/24 01:58:51;;;;;;;35.70;24.10;;;;;;;;;;6305505;28;20071;-62
2023/05/24 02:01:52;;;;;;;35.38;24.55;;;;;;;;;;6292402;28;20052;-62
2023/05/24 02:04:53;;;;;;;33.88;24.02;;;;;;;;;;6294602;28;20047;-61
2023/05/24 02:07:53;;;;;;;37.15;24.33;;;;;;;;;;6292154;28;20048;-62
2023/05/24 02:10:54;;;;;;;34.88;24.20;;;;;;;;;;6298875;28;20076;-61
2023/05/24 02:13:54;;;;;;;33.90;23.52;;;;;;;;;;6293165;28;20503;-63
2023/05/24 02:16:57;;;;;;;35.80;23.05;;;;;;;;;;6293623;28;20055;-62
2023/05/24 02:19:58;;;;;;;33.90;23.92;;;;;;;;;;6295969;28;20056;-62
2023/05/24 02:22:59;;;;;;;34.63;24.27;;;;;;;;;;6293359;28;20132;-63
2023/05/24 02:26:00;;;;;;;36.47;24.30;;;;;;;;;;6294777;28;20060;-62
2023/05/24 02:29:00;;;;;;;37.47;23.17;;;;;;;;;;6294565;28;20052;-59
2023/05/24 02:32:01;;;;;;;36.80;23.95;;;;;;;;;;6293129;28;20660;-62
2023/05/24 02:35:02;;;;;;;32.20;21.98;;;;;;;;;;6300800;28;20046;-62
2023/05/24 02:38:05;;;;;;;37.17;25.17;;;;;;;;;;6299049;28;20044;-58
2023/05/24 02:41:07;;;;;;;40.75;24.90;;;;;;;;;;6291202;28;20054;-63
2023/05/24 02:44:08;;;;;;;41.45;26.83;;;;;;;;;;6294260;28;20062;-62
2023/05/24 02:47:09;;;;;;;40.63;26.38;;;;;;;;;;6294147;28;20041;-61
2023/05/24 02:50:09;;;;;;;47.33;28.48;;;;;;;;;;6292146;28;20083;-59
2023/05/24 02:53:10;;;;;;;43.75;27.25;;;;;;;;;;6306759;28;20082;-59
2023/05/24 02:56:12;;;;;;;43.00;26.95;;;;;;;;;;6297707;28;20044;-60
2023/05/24 02:59:13;;;;;;;39.63;25.60;;;;;;;;;;6300647;28;20040;-63
2023/05/24 03:02:14;;;;;;;43.38;26.13;;;;;;;;;;6293810;28;20844;-59
2023/05/24 03:05:16;;;;;;;45.15;26.27;;;;;;;;;;6304982;28;20044;-63
2023/05/24 03:08:16;;;;;;;47.20;28.23;;;;;;;;;;6296231;28;20041;-61
2023/05/24 03:11:20;;;;;;;42.35;26.90;;;;;;;;;;6297775;28;20310;-62
2023/05/24 03:14:22;;;;;;;46.97;27.13;;;;;;;;;;6296480;28;20131;-61
2023/05/24 03:17:23;;;;;;;45.75;26.88;;;;;;;;;;6295987;28;20090;-62
2023/05/24 03:20:24;;;;;;;46.90;27.67;;;;;;;;;;6298827;28;20040;-61
2023/05/24 03:23:25;;;;;;;40.20;26.27;;;;;;;;;;6297780;28;20041;-60
2023/05/24 03:26:25;;;;;;;43.63;26.13;;;;;;;;;;6292716;28;20786;-62
2023/05/24 03:29:26;;;;;;;42.58;26.08;;;;;;;;;;6312941;28;20461;-61
2023/05/24 03:32:26;;;;;;;41.13;24.95;;;;;;;;;;6317576;28;20418;-60
2023/05/24 03:35:27;;;;;;;38.67;24.73;;;;;;;;;;6317056;28;20048;-62
2023/05/24 03:38:28;;;;;;;39.83;24.58;;;;;;;;;;6315454;28;20568;-62
2023/05/24 03:41:29;;;;;;;40.22;24.15;;;;;;;;;;6316492;28;20086;-61
2023/05/24 03:44:29;;;;;;;38.30;24.13;;;;;;;;;;6296264;28;20048;-62
2023/05/24 03:47:30;;;;;;;36.55;23.77;;;;;;;;;;6295612;28;20525;-61
2023/05/24 03:50:31;;;;;;;37.75;23.25;;;;;;;;;;6296015;28;20037;-61
2023/05/24 03:53:31;;;;;;;35.30;22.48;;;;;;;;;;6300717;28;20045;-62
2023/05/24 03:56:32;;;;;;;34.63;21.80;;;;;;;;;;6297665;28;20105;-61
2023/05/24 03:59:32;;;;;;;32.50;20.83;;;;;;;;;;6295289;28;20044;-62
2023/05/24 04:02:33;;;;;;;37.65;21.48;;;;;;;;;;6289157;28;20040;-61
2023/05/24 04:05:34;;;;;;;35.75;22.30;;;;;;;;;;6289727;28;20067;-62
2023/05/24 04:08:34;;;;;;;37.75;23.23;;;;;;;;;;6301381;28;20070;-62
2023/05/24 04:11:35;;;;;;;34.45;22.33;;;;;;;;;;6293683;28;20040;-62
2023/05/24 04:14:36;;;;;;;32.17;20.98;;;;;;;;;;6292839;28;20032;-62
2023/05/24 04:17:37;;;;;;;31.48;20.10;;;;;;;;;;6300346;28;20066;-62
2023/05/24 04:20:37;;;;;;;29.42;18.95;;;;;;;;;;6305046;28;20483;-60
2023/05/24 04:23:38;;;;;;;33.97;21.30;;;;;;;;;;6291653;28;20040;-61
2023/05/24 04:26:39;;;;;;;37.72;21.92;;;;;;;;;;6289935;28;20041;-59
2023/05/24 04:29:40;;;;;;;39.05;23.30;;;;;;;;;;6294941;28;20044;-61
2023/05/24 04:32:43;;;;;;;38.88;22.63;;;;;;;;;;6296682;28;20040;-61
2023/05/24 04:35:44;;;;;;;36.17;22.48;;;;;;;;;;6293747;28;20085;-62
2023/05/24 04:38:45;;;;;;;41.15;22.63;;;;;;;;;;6301724;28;20041;-62
2023/05/24 04:41:49;;;;;;;37.03;20.88;;;;;;;;;;6293820;28;20491;-61
2023/05/24 04:44:50;;;;;;;32.92;21.63;;;;;;;;;;6292247;28;20044;-62
2023/05/24 04:47:51;;;;;;;29.98;19.63;;;;;;;;;;6292517;28;20450;-61
2023/05/24 04:50:52;;;;;;;30.30;19.75;;;;;;;;;;6295821;28;20529;-62
2023/05/24 04:53:52;;;;;;;30.38;19.05;;;;;;;;;;6289123;28;20105;-61
2023/05/24 04:56:53;;;;;;;31.75;18.20;;;;;;;;;;6293232;28;20486;-61
2023/05/24 04:59:53;;;;;;;27.38;16.98;;;;;;;;;;6292764;28;20051;-62
2023/05/24 05:02:54;;;;;;;27.27;17.70;;;;;;;;;;6293003;28;20052;-62
2023/05/24 05:05:56;;;;;;;29.80;17.13;;;;;;;;;;6291426;28;20501;-59
2023/05/24 05:08:56;;;;;;;30.40;17.73;;;;;;;;;;6292119;28;20040;-62
2023/05/24 05:11:57;;;;;;;27.27;17.00;;;;;;;;;;6290517;28;20075;-62
2023/05/24 05:14:57;;;;;;;25.05;15.40;;;;;;;;;;6290903;28;22045;-62
2023/05/24 05:17:58;;;;;;;24.25;14.98;;;;;;;;;;6292436;28;20036;-61
2023/05/24 05:20:58;;;;;;;22.05;14.18;;;;;;;;;;6292784;28;20056;-61
2023/05/24 05:24:00;;;;;;;26.95;14.07;;;;;;;;;;6293601;28;20830;-60
2023/05/24 05:27:00;;;;;;;22.50;13.45;;;;;;;;;;6298637;28;20760;-61
2023/05/24 05:30:01;;;;;;;21.90;13.40;;;;;;;;;;6297517;28;20083;-59
2023/05/24 05:33:04;;;;;;;22.00;13.07;;;;;;;;;;6291412;28;20787;-61
2023/05/24 05:36:05;;;;;;;18.33;11.68;;;;;;;;;;6286738;28;20045;-61
2023/05/24 05:39:09;;;;;;;19.80;12.32;;;;;;;;;;6291709;28;20688;-61
2023/05/24 05:42:10;;;;;;;19.33;11.88;;;;;;;;;;6293655;28;20032;-62
2023/05/24 05:45:10;;;;;;;22.70;12.63;;;;;;;;;;6293286;28;20051;-61
2023/05/24 05:48:11;;;;;;;19.23;11.55;;;;;;;;;;6295804;28;20036;-59
2023/05/24 05:51:12;;;;;;;17.77;10.82;;;;;;;;;;6292540;28;20086;-59
2023/05/24 05:54:14;;;;;;;18.73;10.93;;;;;;;;;;6290303;28;20490;-59
2023/05/24 05:57:15;;;;;;;19.55;11.40;;;;;;;;;;6287614;28;20175;-59
2023/05/24 06:00:16;;;;;;;18.88;10.85;;;;;;;;;;6292461;28;20055;-56
2023/05/24 06:03:16;;;;;;;16.85;10.57;;;;;;;;;;6291438;28;20056;-60
2023/05/24 06:06:17;;;;;;;18.45;10.88;;;;;;;;;;6290907;28;20495;-60
2023/05/24 06:09:18;;;;;;;18.40;10.38;;;;;;;;;;6293051;28;20044;-60
2023/05/24 06:12:19;;;;;;;21.08;10.45;;;;;;;;;;6296017;28;20055;-59
2023/05/24 06:15:21;;;;;;;18.08;10.15;;;;;;;;;;6294835;28;20052;-59
2023/05/24 06:18:22;;;;;;;18.67;10.45;;;;;;;;;;6292230;28;20475;-59
2023/05/24 06:21:23;;;;;;;18.35;9.52;;;;;;;;;;6290598;28;20044;-59
2023/05/24 06:24:23;;;;;;;16.35;8.57;;;;;;;;;;6290557;28;20135;-58
2023/05/24 06:27:24;;;;;;;13.63;7.25;;;;;;;;;;6292684;28;20137;-59
2023/05/24 06:30:25;;;;;;;12.70;7.10;;;;;;;;;;6293477;28;20865;-59
2023/05/24 06:33:26;;;;;;;16.13;7.88;;;;;;;;;;6291850;28;20044;-58
2023/05/24 06:36:27;;;;;;;17.33;8.00;;;;;;;;;;6300376;28;20051;-60
2023/05/24 06:39:27;;;;;;;16.33;8.52;;;;;;;;;;6297579;28;20434;-56
2023/05/24 06:42:28;;;;;;;16.08;8.10;;;;;;;;;;6297857;28;20044;-60
2023/05/24 06:45:29;;;;;;;15.23;8.30;;;;;;;;;;6296271;28;20418;-60
2023/05/24 06:48:30;;;;;;;16.02;9.32;;;;;;;;;;6298120;28;20065;-58
2023/05/24 06:51:32;;;;;;;20.00;9.52;;;;;;;;;;6298040;28;20231;-59
2023/05/24 06:54:33;;;;;;;17.15;9.05;;;;;;;;;;6295797;28;20043;-60
2023/05/24 06:57:33;;;;;;;18.60;9.57;;;;;;;;;;6294597;28;20048;-61
2023/05/24 07:00:34;;;;;;;18.67;10.05;;;;;;;;;;6298835;28;20146;-60
2023/05/24 07:03:36;;;;;;;19.35;9.95;;;;;;;;;;6295409;28;20183;-58
2023/05/24 07:06:36;;;;;;;16.60;9.07;;;;;;;;;;6296299;28;20097;-60
2023/05/24 07:09:40;;;;;;;18.30;8.75;;;;;;;;;;6297864;28;20395;-61
2023/05/24 07:12:40;;;;;;;19.65;10.90;;;;;;;;;;6294248;28;20051;-60
2023/05/24 07:15:41;;;;;;;18.58;10.20;;;;;;;;;;6296828;28;20516;-56
2023/05/24 07:18:42;;;;;;;22.33;10.50;;;;;;;;;;6297449;28;20135;-59
2023/05/24 07:21:42;;;;;;;20.50;10.52;;;;;;;;;;6297870;28;20048;-58
2023/05/24 07:24:43;;;;;;;22.10;11.68;;;;;;;;;;6295520;28;20405;-57
2023/05/24 07:27:43;;;;;;;21.15;10.80;;;;;;;;;;6298672;28;20036;-60
2023/05/24 07:30:44;;;;;;;20.45;11.15;;;;;;;;;;6300189;28;20139;-60
2023/05/24 07:33:45;;;;;;;20.85;11.15;;;;;;;;;;6295732;28;20482;-59
2023/05/24 07:36:47;;;;;;;21.70;11.52;;;;;;;;;;6296130;28;20186;-60
2023/05/24 07:39:48;;;;;;;22.00;11.95;;;;;;;;;;6298020;28;20051;-60
2023/05/24 07:42:49;;;;;;;21.95;12.27;;;;;;;;;;6296585;28;20058;-59
2023/05/24 07:45:50;;;;;;;22.67;11.50;;;;;;;;;;6295893;28;20060;-60
2023/05/24 07:48:52;;;;;;;20.83;11.43;;;;;;;;;;6299440;28;20040;-60
2023/05/24 07:51:52;;;;;;;18.93;10.60;;;;;;;;;;6297093;28;20067;-60
2023/05/24 07:54:53;;;;;;;18.30;10.20;;;;;;;;;;6295091;28;20300;-57
2023/05/24 07:57:53;;;;;;;18.75;10.55;;;;;;;;;;6294617;28;20418;-60
2023/05/24 08:00:54;;;;;;;18.50;10.40;;;;;;;;;;6298759;28;20083;-60
2023/05/24 08:03:55;;;;;;;16.20;9.32;;;;;;;;;;6294764;28;20101;-60
2023/05/24 08:06:56;;;;;;;13.05;8.10;;;;;;;;;;6298063;28;20040;-61
2023/05/24 08:09:57;;;;;;;12.85;8.02;;;;;;;;;;6298832;28;20048;-60
2023/05/24 08:12:58;;;;;;;15.38;9.55;;;;;;;;;;6300436;28;20113;-60
2023/05/24 08:15:58;;;;;;;18.90;10.93;;;;;;;;;;6297205;28;20491;-59
2023/05/24 08:18:59;;;;;;;17.67;10.32;;;;;;;;;;6297318;28;20105;-58
2023/05/24 08:22:03;;;;;;;17.70;10.82;;;;;;;;;;6299743;28;20059;-60
2023/05/24 08:25:05;;;;;;;20.85;12.30;;;;;;;;;;6299026;28;20046;-60
2023/05/24 08:28:06;;;;;;;19.00;11.85;;;;;;;;;;6299498;28;20146;-61
2023/05/24 08:31:07;;;;;;;22.27;11.30;;;;;;;;;;6301120;28;20052;-60
2023/05/24 08:34:07;;;;;;;22.38;12.98;;;;;;;;;;6299420;28;20433;-60
2023/05/24 08:37:09;;;;;;;24.38;13.38;;;;;;;;;;6295284;28;20072;-60
2023/05/24 08:40:09;;;;;;;22.87;13.07;;;;;;;;;;6295491;28;20055;-59
2023/05/24 08:46:16;;;;;;;20.98;13.18;;;;;;;;;;6264025;22;20063;-61
2023/05/24 08:49:17;;;;;;;26.25;13.05;;;;;;;;;;6245846;28;20053;-59
2023/05/24 08:52:19;;;;;;;22.70;13.50;;;;;;;;;;6264863;28;20090;-62
2023/05/24 08:55:20;;;;;;;22.98;13.70;;;;;;;;;;6251658;28;20071;-63
2023/05/24 08:58:21;;;;;;;22.02;12.60;;;;;;;;;;6266129;28;20052;-62
2023/05/24 09:01:25;;;;;;;20.98;12.23;;;;;;;;;;6264693;28;20075;-61
2023/05/24 09:04:26;;;;;;;21.08;12.70;;;;;;;;;;6262100;28;20049;-62
2023/05/24 09:07:27;;;;;;;20.30;11.30;;;;;;;;;;6263733;28;20462;-62
2023/05/24 09:10:30;;;;;;;22.70;12.50;;;;;;;;;;6260757;28;20053;-62
2023/05/24 09:13:31;;;;;;;20.45;12.50;;;;;;;;;;6257992;28;20536;-61
2023/05/24 09:16:32;;;;;;;18.92;11.43;;;;;;;;;;6260398;28;20052;-59
2023/05/24 09:19:32;;;;;;;18.60;11.48;;;;;;;;;;6263650;28;20922;-56
2023/05/24 09:22:34;;;;;;;21.40;12.23;;;;;;;;;;6262360;28;20064;-62
2023/05/24 09:25:35;;;;;;;20.83;11.93;;;;;;;;;;6261579;28;20041;-60
2023/05/24 09:28:36;;;;;;;19.58;11.40;;;;;;;;;;6262594;28;20047;-61
2023/05/24 09:31:38;;;;;;;18.45;11.80;;;;;;;;;;6254170;28;20120;-60
2023/05/24 09:34:42;;;;;;;18.23;11.57;;;;;;;;;;6264354;28;20041;-61
2023/05/24 09:37:45;;;;;;;19.83;11.43;;;;;;;;;;6267769;28;20049;-61
2023/05/24 09:40:46;;;;;;;18.55;11.00;;;;;;;;;;6266565;28;20045;-62
2023/05/24 09:43:48;;;;;;;15.48;10.38;;;;;;;;;;6264781;28;20444;-61
2023/05/24 09:46:49;;;;;;;18.20;10.85;;;;;;;;;;6263734;28;20072;-59
2023/05/24 09:49:51;;;;;;;17.73;10.52;;;;;;;;;;6270712;28;20607;-60
2023/05/24 09:52:53;;;;;;;16.10;10.40;;;;;;;;;;6268441;28;20045;-61
2023/05/24 09:55:53;;;;;;;15.90;9.80;;;;;;;;;;6264034;28;20045;-62
2023/05/24 09:58:55;;;;;;;16.15;9.50;;;;;;;;;;6263895;28;20479;-61
2023/05/24 10:02:09;;;;;;;16.33;8.85;;;;;;;;;;6269334;28;20515;-62
2023/05/24 10:05:10;;;;;;;14.00;8.75;;;;;;;;;;6263612;28;20110;-61
2023/05/24 10:08:13;;;;;;;;;;;;;;;;;;6266749;28;20479;-62
2023/05/24 10:11:13;;;;;;;12.80;8.60;;;;;;;;;;6271727;28;19935;-60
2023/05/24 10:14:16;;;;;;;13.55;8.77;;;;;;;;;;6269515;28;20076;-62
2023/05/24 10:17:17;;;;;;;13.88;8.50;;;;;;;;;;6266548;28;20053;-61
2023/05/24 10:20:18;;;;;;;15.07;9.30;;;;;;;;;;6267680;28;20059;-61
2023/05/24 10:23:22;;;;;;;15.35;8.90;;;;;;;;;;6264767;28;20101;-62
2023/05/24 10:26:27;;;;;;;15.07;8.88;;;;;;;;;;6267097;28;20041;-61
2023/05/24 10:29:45;;;;;;;17.67;8.95;;;;;;;;;;6268897;28;20886;-63
2023/05/24 10:32:47;;;;;;;14.25;8.07;;;;;;;;;;6267975;28;20045;-62
2023/05/24 10:35:48;;;;;;;14.43;7.80;;;;;;;;;;6266341;28;20267;-62
2023/05/24 10:38:49;;;;;;;15.38;8.25;;;;;;;;;;6266636;28;20117;-60
2023/05/24 10:41:50;;;;;;;14.70;8.40;;;;;;;;;;6267391;28;20060;-61
2023/05/24 10:44:51;;;;;;;12.18;8.25;;;;;;;;;;6265088;28;20052;-60
2023/05/24 10:47:55;;;;;;;14.07;8.77;;;;;;;;;;6267450;28;20056;-59
2023/05/24 10:50:56;;;;;;;13.35;8.80;;;;;;;;;;6267140;28;20438;-60
2023/05/24 10:53:56;;;;;;;14.20;8.82;;;;;;;;;;6251922;28;20076;-61
2023/05/24 10:57:03;;;;;;;13.88;8.63;;;;;;;;;;6267029;28;20509;-60
2023/05/24 11:00:26;;;;;;;12.52;8.85;;;;;;;;;;6266390;28;20049;-62
2023/05/24 11:03:33;;;;;;;14.32;8.98;;;;;;;;;;6263854;28;20048;-61
2023/05/24 11:07:00;;;;;;;15.00;9.13;;;;;;;;;;6265249;28;20047;-58
2023/05/24 11:10:08;;;;;;;14.15;9.45;;;;;;;;;;6266152;28;20071;-60
2023/05/24 11:13:09;;;;;;;16.13;9.40;;;;;;;;;;6265995;28;20076;-61
2023/05/24 11:16:36;;;;;;;13.93;9.63;;;;;;;;;;6267259;28;20059;-60
2023/05/24 11:19:48;;;;;;;15.02;9.63;;;;;;;;;;6267113;28;20055;-61
2023/05/24 11:22:51;;;;;;;13.15;9.32;;;;;;;;;;6266438;28;20048;-62
2023/05/24 11:25:52;;;;;;;15.27;9.95;;;;;;;;;;6264990;28;20048;-62
2023/05/24 11:28:53;;;;;;;13.53;9.23;;;;;;;;;;6264926;28;20067;-61
2023/05/24 11:32:04;;;;;;;16.63;8.82;;;;;;;;;;6264839;28;20057;-62
2023/05/24 11:35:08;;;;;;;13.73;8.82;;;;;;;;;;6263903;28;21687;-62
2023/05/24 11:38:13;;;;;;;12.93;7.78;;;;;;;;;;6266151;28;20591;-61
2023/05/24 11:41:14;;;;;;;15.23;8.57;;;;;;;;;;6267580;28;20679;-59
2023/05/24 11:44:18;;;;;;;15.25;8.90;;;;;;;;;;6262655;28;20056;-59
2023/05/24 11:47:20;;;;;;;15.43;8.40;;;;;;;;;;6264332;28;21453;-61
2023/05/24 11:50:23;;;;;;;15.93;9.97;;;;;;;;;;6268280;28;20048;-61
2023/05/24 11:53:24;;;;;;;14.80;9.35;;;;;;;;;;6264468;28;20049;-60
2023/05/24 11:56:27;;;;;;;16.92;9.18;;;;;;;;;;6265814;28;20098;-61
2023/05/24 11:59:29;;;;;;;15.18;9.45;;;;;;;;;;6263532;28;20041;-61
2023/05/24 12:02:29;;;;;;;18.48;9.38;;;;;;;;;;6262417;28;20053;-60
2023/05/24 12:05:31;;;;;;;16.08;9.50;;;;;;;;;;6263806;28;20485;-61
2023/05/24 12:08:31;;;;;;;15.95;9.50;;;;;;;;;;6266336;28;20048;-61
2023/05/24 12:11:32;;;;;;;16.10;9.48;;;;;;;;;;6264454;28;20064;-58
2023/05/24 12:14:34;;;;;;;14.80;9.18;;;;;;;;;;6264037;28;20063;-60
2023/05/24 12:17:35;;;;;;;15.05;9.63;;;;;;;;;;6266923;28;20055;-62
2023/05/24 12:20:37;;;;;;;16.35;10.20;;;;;;;;;;6265938;28;20053;-61
2023/05/24 12:23:38;;;;;;;16.08;10.82;;;;;;;;;;6265402;28;20047;-62
2023/05/24 12:26:43;;;;;;;15.98;10.25;;;;;;;;;;6263287;28;20773;-62
2023/05/24 12:29:44;;;;;;;15.45;9.57;;;;;;;;;;6268546;28;20652;-60
2023/05/24 12:32:46;;;;;;;17.83;11.10;;;;;;;;;;6268740;28;20053;-62
2023/05/24 12:35:48;;;;;;;17.20;10.60;;;;;;;;;;6268961;28;20052;-62
2023/05/24 12:38:49;;;;;;;19.58;10.98;;;;;;;;;;6266312;28;20055;-62
2023/05/24 12:41:52;;;;;;;16.25;10.55;;;;;;;;;;6270549;28;20041;-61
2023/05/24 12:44:53;;;;;;;15.07;10.70;;;;;;;;;;6264265;28;20047;-62
2023/05/24 12:47:56;;;;;;;15.13;9.75;;;;;;;;;;6269817;28;20049;-60
2023/05/24 12:50:56;;;;;;;15.15;10.13;;;;;;;;;;6264676;28;20072;-62
2023/05/24 12:53:57;;;;;;;14.38;10.70;;;;;;;;;;6261422;28;20520;-62
2023/05/24 12:57:07;;;;;;;19.50;11.23;;;;;;;;;;6263184;28;20049;-60
2023/05/24 13:00:11;;;;;;;18.77;11.55;;;;;;;;;;6264235;28;20681;-60
2023/05/24 13:03:12;;;;;;;19.10;10.88;;;;;;;;;;6262513;28;20055;-61
2023/05/24 13:06:13;;;;;;;19.48;11.43;;;;;;;;;;6262190;28;20041;-62
2023/05/24 13:09:14;;;;;;;17.92;10.93;;;;;;;;;;6262105;28;20399;-61
2023/05/24 13:12:15;;;;;;;17.38;10.13;;;;;;;;;;6262743;28;20060;-61
2023/05/24 13:15:16;;;;;;;19.08;10.50;;;;;;;;;;6260307;28;20485;-62
2023/05/24 13:18:16;;;;;;;15.88;9.75;;;;;;;;;;6263365;28;20817;-61
2023/05/24 13:21:17;;;;;;;15.88;9.75;;;;;;;;;;6262989;28;20596;-62
2023/05/24 13:24:19;;;;;;;18.05;9.02;;;;;;;;;;6259998;28;20049;-61
2023/05/24 13:27:20;;;;;;;14.98;9.02;;;;;;;;;;6258862;28;20048;-60
2023/05/24 13:30:26;;;;;;;15.38;8.30;;;;;;;;;;6263744;28;20051;-62
2023/05/24 13:33:26;;;;;;;12.23;7.75;;;;;;;;;;6262830;28;21032;-61
2023/05/24 13:36:27;;;;;;;12.50;8.05;;;;;;;;;;6259723;28;20055;-62
2023/05/24 13:39:28;;;;;;;16.48;8.70;;;;;;;;;;6265236;28;20084;-60
2023/05/24 13:42:28;;;;;;;18.25;9.98;;;;;;;;;;6264874;28;20053;-61
2023/05/24 13:45:31;;;;;;;12.55;8.18;;;;;;;;;;6263404;28;20741;-59
2023/05/24 13:48:33;;;;;;;15.05;8.05;;;;;;;;;;6261087;28;20062;-60
2023/05/24 13:51:35;;;;;;;16.15;8.88;;;;;;;;;;6264530;28;20118;-62
2023/05/24 13:54:35;;;;;;;16.92;9.48;;;;;;;;;;6258344;28;20056;-60
2023/05/24 13:57:36;;;;;;;15.15;9.95;;;;;;;;;;6262078;28;20056;-62
2023/05/24 14:00:37;;;;;;;13.95;8.85;;;;;;;;;;6261711;28;20080;-61
2023/05/24 14:03:39;;;;;;;14.48;10.13;;;;;;;;;;6262033;28;20083;-60
2023/05/24 14:06:40;;;;;;;;;;;;;;;;;;6262548;28;20405;-60
2023/05/24 14:09:41;;;;;;;13.60;9.07;;;;;;;;;;6261411;28;19920;-60
2023/05/24 14:12:42;;;;;;;15.13;8.77;;;;;;;;;;6260328;28;20045;-61
2023/05/24 14:15:43;;;;;;;19.10;8.77;;;;;;;;;;6261253;28;20557;-61
2023/05/24 14:18:44;;;;;;;17.05;8.55;;;;;;;;;;6263725;28;20055;-61
2023/05/24 14:21:45;;;;;;;12.35;8.82;;;;;;;;;;6261894;28;20157;-61
2023/05/24 14:24:46;;;;;;;16.52;10.02;;;;;;;;;;6258615;28;21320;-59
2023/05/24 14:27:46;;;;;;;16.65;9.85;;;;;;;;;;6261250;28;20167;-61
2023/05/24 14:30:47;;;;;;;14.82;8.63;;;;;;;;;;6259851;28;20087;-59
2023/05/24 14:33:47;;;;;;;17.60;11.23;;;;;;;;;;6262570;28;20663;-60
2023/05/24 14:36:49;;;;;;;15.77;9.90;;;;;;;;;;6258803;28;20654;-61
2023/05/24 14:39:49;;;;;;;15.20;9.15;;;;;;;;;;6262680;28;20554;-61
2023/05/24 14:42:50;;;;;;;17.02;9.73;;;;;;;;;;6262644;28;20114;-61
2023/05/24 14:45:50;;;;;;;16.42;10.15;;;;;;;;;;6259463;28;20068;-61
2023/05/24 14:48:51;;;;;;;17.83;9.95;;;;;;;;;;6262285;28;20049;-60
2023/05/24 14:51:52;;;;;;;16.48;9.68;;;;;;;;;;6260797;28;20068;-61
2023/05/24 14:54:53;;;;;;;15.90;9.30;;;;;;;;;;6263186;28;20059;-60
2023/05/24 14:57:53;;;;;;;11.95;8.77;;;;;;;;;;6255613;28;20809;-59
2023/05/24 15:00:54;;;;;;;14.68;8.73;;;;;;;;;;6271169;28;20133;-60
2023/05/24 15:03:55;;;;;;;14.07;8.73;;;;;;;;;;6272597;28;20040;-61
2023/05/24 15:06:55;;;;;;;13.63;8.60;;;;;;;;;;6268950;28;20151;-61
2023/05/24 15:09:56;;;;;;;13.57;8.25;;;;;;;;;;6273528;28;20040;-61
2023/05/24 15:12:57;;;;;;;12.05;7.60;;;;;;;;;;6275076;28;20048;-61
2023/05/24 15:15:59;;;;;;;11.90;7.25;;;;;;;;;;6270962;28;20052;-62
2023/05/24 15:19:00;;;;;;;12.00;8.80;;;;;;;;;;6266803;28;20044;-59
2023/05/24 15:22:00;;;;;;;12.35;8.35;;;;;;;;;;6268627;28;20080;-59
2023/05/24 15:25:01;;;;;;;14.70;9.23;;;;;;;;;;6266637;28;20186;-61
2023/05/24 15:28:02;;;;;;;15.00;9.23;;;;;;;;;;6267663;28;20052;-60
2023/05/24 15:31:03;;;;;;;14.33;9.27;;;;;;;;;;6271392;28;20040;-61
2023/05/24 15:34:04;;;;;;;14.75;8.75;;;;;;;;;;6261421;28;20071;-62
2023/05/24 15:37:05;;;;;;;15.07;9.00;;;;;;;;;;6267056;28;20059;-60
2023/05/24 15:40:08;;;;;;;11.85;8.25;;;;;;;;;;6270269;28;20416;-62
2023/05/24 15:43:09;;;;;;;16.67;8.20;;;;;;;;;;6268743;28;20068;-60
2023/05/24 15:46:10;;;;;;;16.03;8.53;;;;;;;;;;6266901;28;20063;-59
2023/05/24 15:49:10;;;;;;;16.25;9.15;;;;;;;;;;6269308;28;20480;-60
2023/05/24 15:52:11;;;;;;;16.35;8.52;;;;;;;;;;6269679;28;20052;-60
2023/05/24 15:55:12;;;;;;;15.07;8.70;;;;;;;;;;6268564;28;20619;-61
2023/05/24 15:58:14;;;;;;;14.90;9.02;;;;;;;;;;6268703;28;20037;-60
2023/05/24 16:01:15;;;;;;;18.42;9.85;;;;;;;;;;6270385;28;20057;-61
2023/05/24 16:04:15;;;;;;;14.35;8.43;;;;;;;;;;6267710;28;20048;-62
2023/05/24 16:07:18;;;;;;;14.98;8.85;;;;;;;;;;6270388;28;20054;-57
2023/05/24 16:10:18;;;;;;;34.78;17.88;;;;;;;;;;6266938;28;20072;-60
2023/05/24 16:13:20;;;;;;;14.02;8.68;;;;;;;;;;6267217;28;20068;-59
2023/05/24 16:16:22;;;;;;;16.07;8.63;;;;;;;;;;6268315;28;20041;-61
2023/05/24 16:19:22;;;;;;;17.13;10.38;;;;;;;;;;6267414;28;20323;-60
2023/05/24 16:22:23;;;;;;;14.50;9.38;;;;;;;;;;6270924;28;20068;-61
2023/05/24 16:25:24;;;;;;;20.67;10.90;;;;;;;;;;6264273;28;20072;-61
2023/05/24 16:28:25;;;;;;;14.57;9.93;;;;;;;;;;6260962;28;20052;-60
2023/05/24 16:31:26;;;;;;;15.27;9.27;;;;;;;;;;6266237;28;20053;-58
2023/05/24 16:34:27;;;;;;;16.38;9.18;;;;;;;;;;6266219;28;20059;-58
2023/05/24 16:37:28;;;;;;;19.98;11.25;;;;;;;;;;6269308;28;20076;-59
2023/05/24 16:40:28;;;;;;;21.98;12.65;;;;;;;;;;6267380;28;20063;-59
2023/05/24 16:43:29;;;;;;;21.67;10.68;;;;;;;;;;6273457;28;20444;-60
2023/05/24 16:46:31;;;;;;;18.02;11.50;;;;;;;;;;6267112;28;20176;-60
2023/05/24 16:49:32;;;;;;;16.98;9.07;;;;;;;;;;6268483;28;20044;-56
2023/05/24 16:52:32;;;;;;;15.02;8.13;;;;;;;;;;6263115;28;20045;-61
2023/05/24 16:55:33;;;;;;;17.98;10.65;;;;;;;;;;6262686;28;20029;-61
2023/05/24 16:58:34;;;;;;;23.25;13.20;;;;;;;;;;6264829;28;20064;-61
2023/05/24 17:01:36;;;;;;;23.42;13.38;;;;;;;;;;6247935;28;20037;-58
2023/05/24 17:04:37;;;;;;;18.48;10.45;;;;;;;;;;6255915;28;20510;-61
2023/05/24 17:07:38;;;;;;;21.02;12.77;;;;;;;;;;6257207;28;20055;-61
2023/05/24 17:10:41;;;;;;;18.35;11.73;;;;;;;;;;6256503;28;20063;-60
2023/05/24 17:13:42;;;;;;;17.08;9.27;;;;;;;;;;6259338;28;20159;-61
2023/05/24 17:16:43;;;;;;;19.75;8.95;;;;;;;;;;6257896;28;20040;-60
2023/05/24 17:19:44;;;;;;;15.27;9.55;;;;;;;;;;6258022;28;20045;-61
2023/05/24 17:22:45;;;;;;;14.40;8.90;;;;;;;;;;6262052;28;20067;-59
2023/05/24 17:25:46;;;;;;;17.55;9.88;;;;;;;;;;6259647;28;20067;-61
2023/05/24 17:28:47;;;;;;;19.33;11.02;;;;;;;;;;6258192;28;20492;-60
2023/05/24 17:31:48;;;;;;;17.33;10.20;;;;;;;;;;6250882;28;20131;-59
2023/05/24 17:34:49;;;;;;;18.00;10.30;;;;;;;;;;6256082;28;20552;-60
2023/05/24 17:37:50;;;;;;;17.30;9.57;;;;;;;;;;6257315;28;20049;-61
2023/05/24 17:40:57;;;;;;;16.65;9.85;;;;;;;;;;6258902;28;20053;-61
2023/05/24 17:43:59;;;;;;;23.92;13.48;;;;;;;;;;6256746;28;20052;-61
2023/05/24 17:47:00;;;;;;;20.27;10.98;;;;;;;;;;6255339;28;20040;-59
2023/05/24 17:50:01;;;;;;;;;;;;;;;;;;6249899;28;20079;-61